Time;durP1;ratioP1;P1;durP2;ratioP2;P2;SDS_P1;SDS_P2;PMS_P1;PMS_P2;Temp;Humidity;BMP_temperature;BMP_pressure;BME280_temperature;BME280_humidity;BME280_pressure;Samples;Min_cycle;Max_cycle;Signal;HPM_P1;HPM_P2
2022/05/27 00:00:48;;;;;;;3.92;1.90;;;15.90;69.70;;;;;;5089843;28;21031;-69
2022/05/27 00:03:16;;;;;;;2.47;2.00;;;15.80;70.90;;;;;;5090605;28;20922;-68
2022/05/27 00:05:43;;;;;;;2.30;1.65;;;15.80;69.90;;;;;;5086964;28;20770;-68
2022/05/27 00:08:10;;;;;;;2.60;2.10;;;15.80;69.70;;;;;;5086040;28;20483;-68
2022/05/27 00:10:37;;;;;;;2.72;1.90;;;15.70;69.90;;;;;;5085392;28;20896;-68
2022/05/27 00:13:04;;;;;;;2.80;2.10;;;15.70;70.20;;;;;;5086177;28;21011;-68
2022/05/27 00:15:32;;;;;;;2.88;1.85;;;15.70;70.20;;;;;;5086217;28;20537;-68
2022/05/27 00:17:58;;;;;;;3.55;2.53;;;15.70;70.50;;;;;;5081181;28;20483;-68
2022/05/27 00:20:26;;;;;;;5.35;2.55;;;15.70;70.40;;;;;;5084852;28;20503;-69
2022/05/27 00:22:53;;;;;;;3.75;2.70;;;15.60;70.80;;;;;;5085117;28;20890;-70
2022/05/27 00:25:20;;;;;;;6.82;2.90;;;15.60;71.00;;;;;;5085348;28;20855;-68
2022/05/27 00:27:46;;;;;;;2.83;2.57;;;15.60;71.00;;;;;;5085448;28;20508;-68
2022/05/27 00:30:13;;;;;;;2.95;2.60;;;15.50;71.20;;;;;;5083906;28;20406;-68
2022/05/27 00:32:42;;;;;;;3.25;2.60;;;15.50;71.30;;;;;;5073466;28;20515;-68
2022/05/27 00:35:09;;;;;;;3.10;2.80;;;15.50;71.40;;;;;;5085420;28;20470;-70
2022/05/27 00:37:36;;;;;;;3.37;2.70;;;15.50;71.60;;;;;;5085320;28;20507;-69
2022/05/27 00:40:03;;;;;;;3.40;3.10;;;15.50;71.70;;;;;;5086645;28;20421;-68
2022/05/27 00:42:30;;;;;;;5.85;3.30;;;15.50;71.70;;;;;;5087094;28;20422;-68
2022/05/27 00:44:57;;;;;;;4.65;3.10;;;15.50;71.50;;;;;;5086100;28;20494;-70
2022/05/27 00:47:26;;;;;;;3.90;2.85;;;15.50;71.50;;;;;;5076501;28;20519;-70
2022/05/27 00:49:58;;;;;;;4.22;3.10;;;15.50;72.50;;;;;;5085636;28;20410;-69
2022/05/27 00:52:31;;;;;;;3.45;3.15;;;15.50;71.60;;;;;;5085320;28;20503;-69
2022/05/27 00:54:58;;;;;;;4.22;3.20;;;15.50;71.70;;;;;;5085496;28;20478;-67
2022/05/27 00:57:32;;;;;;;3.80;3.30;;;15.50;71.60;;;;;;5083728;28;20417;-68
2022/05/27 01:00:03;;;;;;;3.90;3.30;;;15.40;71.90;;;;;;5077761;28;20501;-68
2022/05/27 01:02:30;;;;;;;4.70;3.90;;;15.40;72.00;;;;;;5086089;28;20459;-68
2022/05/27 01:05:01;;;;;;;4.03;3.40;;;15.30;72.40;;;;;;5085339;28;20402;-68
2022/05/27 01:07:27;;;;;;;4.50;3.30;;;15.30;72.30;;;;;;5085090;28;20410;-68
2022/05/27 01:09:55;;;;;;;4.22;3.83;;;15.20;72.50;;;;;;5085697;28;20418;-68
2022/05/27 01:12:33;;;;;;;4.68;3.60;;;15.30;72.70;;;;;;5083529;28;20430;-69
2022/05/27 01:15:13;;;;;;;5.57;3.50;;;15.20;72.70;;;;;;5077390;28;20414;-68
2022/05/27 01:17:50;;;;;;;6.68;3.38;;;15.30;72.70;;;;;;5085104;28;20406;-70
2022/05/27 01:20:29;;;;;;;5.85;3.67;;;15.30;72.30;;;;;;5085188;28;20410;-68
2022/05/27 01:23:23;;;;;;;3.70;3.22;;;15.20;72.60;;;;;;5084539;28;20425;-68
2022/05/27 01:26:21;;;;;;;5.68;3.65;;;15.10;72.90;;;;;;5068358;28;20818;-68
2022/05/27 01:28:53;;;;;;;4.43;3.13;;;15.10;73.10;;;;;;5084022;28;21004;-70
2022/05/27 01:31:32;;;;;;;6.05;3.60;;;15.10;73.20;;;;;;5088639;28;20471;-68
2022/05/27 01:34:08;;;;;;;4.47;3.00;;;15.10;73.20;;;;;;5083685;28;20917;-70
2022/05/27 01:36:42;;;;;;;4.65;2.90;;;15.10;73.20;;;;;;5083619;28;20445;-68
2022/05/27 01:39:23;;;;;;;4.90;3.40;;;15.20;73.30;;;;;;5084146;28;20417;-70
2022/05/27 01:41:57;;;;;;;5.38;3.40;;;15.20;73.30;;;;;;5080231;28;20557;-68
2022/05/27 01:44:29;;;;;;;5.60;3.80;;;15.20;73.20;;;;;;5078538;28;20456;-68
2022/05/27 01:46:57;;;;;;;3.72;3.35;;;15.20;73.10;;;;;;5075732;28;20513;-68
2022/05/27 01:49:30;;;;;;;5.20;3.30;;;15.20;73.40;;;;;;5083928;28;20512;-68
2022/05/27 01:52:01;;;;;;;5.78;3.40;;;15.20;73.40;;;;;;5084279;28;20639;-68
2022/05/27 01:54:37;;;;;;;5.03;3.60;;;15.20;73.10;;;;;;5096551;23;20853;-66
2022/05/27 01:57:08;;;;;;;5.65;3.70;;;15.20;73.10;;;;;;5036897;28;20959;-64
2022/05/27 01:59:42;;;;;;;3.70;3.10;;;15.10;73.20;;;;;;5044170;28;20441;-64
2022/05/27 02:02:15;;;;;;;4.55;3.38;;;15.10;73.70;;;;;;5047559;28;20426;-65
2022/05/27 02:04:48;;;;;;;4.20;3.40;;;15.10;73.60;;;;;;5047706;28;20472;-66
2022/05/27 02:07:20;;;;;;;5.75;3.10;;;15.00;73.80;;;;;;5047625;28;20467;-65
2022/05/27 02:09:53;;;;;;;4.00;3.00;;;15.10;73.80;;;;;;5047691;28;20902;-65
2022/05/27 02:12:24;;;;;;;3.80;3.30;;;15.10;73.70;;;;;;5046840;28;20471;-66
2022/05/27 02:14:55;;;;;;;3.90;3.20;;;15.10;73.70;;;;;;5046602;28;20445;-66
2022/05/27 02:17:28;;;;;;;4.05;3.15;;;15.10;73.40;;;;;;5046967;28;20846;-64
2022/05/27 02:19:58;;;;;;;3.95;3.38;;;15.10;73.30;;;;;;5047758;28;20413;-65
2022/05/27 02:22:30;;;;;;;3.50;2.70;;;15.20;73.30;;;;;;5047447;28;20421;-65
2022/05/27 02:25:00;;;;;;;5.85;2.80;;;15.10;73.40;;;;;;5047401;28;20891;-65
2022/05/27 02:27:32;;;;;;;4.30;3.10;;;15.10;73.40;;;;;;5046225;28;20490;-67
2022/05/27 02:30:04;;;;;;;3.50;2.70;;;15.10;73.60;;;;;;5044122;28;20495;-64
2022/05/27 02:32:37;;;;;;;4.80;2.60;;;15.10;73.70;;;;;;5047036;28;20475;-67
2022/05/27 02:35:08;;;;;;;3.50;2.50;;;15.00;74.10;;;;;;5047709;28;20413;-65
2022/05/27 02:37:37;;;;;;;4.70;2.57;;;15.00;74.40;;;;;;5047162;28;20485;-65
2022/05/27 02:40:07;;;;;;;4.30;2.40;;;15.00;74.40;;;;;;5047592;28;20413;-66
2022/05/27 02:42:42;;;;;;;7.03;2.60;;;15.00;74.60;;;;;;5046053;28;20441;-65
2022/05/27 02:45:20;;;;;;;5.00;2.90;;;14.90;74.70;;;;;;5047596;28;20518;-65
2022/05/27 02:47:56;;;;;;;4.70;2.83;;;15.00;74.70;;;;;;5047198;28;20822;-66
2022/05/27 02:50:31;;;;;;;4.70;3.00;;;15.00;75.00;;;;;;5047717;28;20490;-65
2022/05/27 02:53:07;;;;;;;4.38;2.80;;;14.90;75.50;;;;;;5047639;28;20417;-66
2022/05/27 02:55:40;;;;;;;5.55;3.00;;;14.90;76.30;;;;;;5046175;28;20973;-66
2022/05/27 02:58:07;;;;;;;3.80;3.10;;;14.80;76.70;;;;;;5046718;28;20885;-65
2022/05/27 03:00:37;;;;;;;3.55;3.10;;;14.70;77.00;;;;;;5047551;28;20424;-66
2022/05/27 03:03:05;;;;;;;3.37;2.70;;;14.80;77.20;;;;;;5050390;28;20417;-66
2022/05/27 03:05:44;;;;;;;6.20;3.60;;;14.70;77.50;;;;;;5050853;28;20425;-67
2022/05/27 03:08:19;;;;;;;5.05;3.17;;;14.60;78.10;;;;;;5050955;28;20474;-66
2022/05/27 03:11:07;;;;;;;4.60;3.10;;;14.60;79.00;;;;;;5049531;28;20437;-66
2022/05/27 03:13:47;;;;;;;4.18;2.83;;;14.50;80.00;;;;;;5050953;28;20409;-65
2022/05/27 03:16:23;;;;;;;5.20;3.00;;;14.30;80.20;;;;;;5050512;28;20424;-64
2022/05/27 03:19:15;;;;;;;3.92;2.70;;;14.40;80.30;;;;;;5050720;28;20467;-67
2022/05/27 03:21:51;;;;;;;2.90;2.70;;;14.40;80.00;;;;;;5050861;28;20436;-67
2022/05/27 03:24:25;;;;;;;3.00;2.70;;;14.40;80.60;;;;;;5049791;28;21246;-66
2022/05/27 03:27:03;;;;;;;3.40;2.80;;;14.30;81.60;;;;;;5050232;28;20417;-65
2022/05/27 03:29:37;;;;;;;4.80;2.70;;;14.20;82.50;;;;;;5050287;28;20413;-64
2022/05/27 03:32:13;;;;;;;3.77;2.80;;;14.10;83.40;;;;;;5050191;28;20974;-64
2022/05/27 03:34:49;;;;;;;7.13;2.85;;;14.10;84.40;;;;;;5050758;28;20436;-65
2022/05/27 03:37:22;;;;;;;4.22;3.33;;;14.00;85.00;;;;;;5050171;28;20432;-66
2022/05/27 03:39:58;;;;;;;4.38;3.20;;;13.90;85.50;;;;;;5048131;28;20584;-65
2022/05/27 03:42:26;;;;;;;3.90;3.50;;;13.90;85.90;;;;;;5050089;28;20787;-68
2022/05/27 03:44:58;;;;;;;6.00;3.90;;;13.80;87.50;;;;;;5050367;28;20427;-66
2022/05/27 03:47:24;;;;;;;5.10;4.20;;;13.70;89.20;;;;;;5049749;28;20461;-66
2022/05/27 03:49:53;;;;;;;5.55;4.50;;;13.60;90.00;;;;;;5050410;28;20413;-67
2022/05/27 03:52:22;;;;;;;4.80;4.40;;;13.60;90.30;;;;;;5050268;28;20417;-66
2022/05/27 03:54:48;;;;;;;5.15;4.65;;;13.50;90.60;;;;;;5048850;28;22306;-65
2022/05/27 03:57:15;;;;;;;5.57;4.93;;;13.40;90.90;;;;;;5049707;28;20460;-65
2022/05/27 03:59:42;;;;;;;6.60;5.63;;;13.40;91.20;;;;;;5050250;28;20413;-65
2022/05/27 04:02:09;;;;;;;5.80;5.30;;;13.30;91.40;;;;;;5049193;28;20495;-65
2022/05/27 04:04:36;;;;;;;6.50;5.90;;;13.30;91.70;;;;;;5049753;28;20929;-65
2022/05/27 04:07:04;;;;;;;6.60;6.10;;;13.20;92.10;;;;;;5048128;28;20536;-66
2022/05/27 04:09:33;;;;;;;6.32;5.82;;;13.20;92.30;;;;;;5049583;28;20417;-66
2022/05/27 04:12:00;;;;;;;6.40;5.80;;;13.10;92.30;;;;;;5049833;28;20504;-66
2022/05/27 04:14:27;;;;;;;6.90;6.30;;;13.10;92.50;;;;;;5049774;28;20539;-66
2022/05/27 04:17:27;;;;;;;6.63;6.03;;;13.00;92.50;;;;;;5049482;28;21051;-66
2022/05/27 04:19:41;;;;;;;6.50;5.90;;;13.00;92.20;;;;;;5039313;28;20450;-66
2022/05/27 04:22:09;;;;;;;5.90;5.40;;;13.10;92.20;;;;;;5048247;28;20849;-66
2022/05/27 04:24:35;;;;;;;5.40;4.90;;;13.10;92.00;;;;;;5049564;28;20467;-65
2022/05/27 04:27:08;;;;;;;5.80;5.30;;;13.10;91.80;;;;;;5049258;28;20462;-64
2022/05/27 04:29:38;;;;;;;5.10;4.60;;;13.20;91.80;;;;;;5049461;28;20903;-66
2022/05/27 04:32:05;;;;;;;4.60;4.20;;;13.20;91.40;;;;;;5049492;28;20883;-66
2022/05/27 04:34:32;;;;;;;4.00;3.70;;;13.30;91.10;;;;;;5045932;28;20465;-67
2022/05/27 04:36:59;;;;;;;5.93;4.28;;;13.30;91.00;;;;;;5048898;28;20434;-65
2022/05/27 04:39:27;;;;;;;4.22;3.55;;;13.30;91.10;;;;;;5049640;28;20429;-65
2022/05/27 04:41:54;;;;;;;4.35;3.63;;;13.30;90.70;;;;;;5049312;28;20417;-66
2022/05/27 04:44:21;;;;;;;5.10;3.53;;;13.40;90.70;;;;;;5049406;28;20425;-65
2022/05/27 04:46:47;;;;;;;5.70;3.90;;;13.40;90.70;;;;;;5049197;28;20414;-66
2022/05/27 04:49:50;;;;;;;5.45;4.00;;;13.40;90.40;;;;;;5048214;28;20441;-66
2022/05/27 04:52:01;;;;;;;4.10;3.70;;;13.40;90.50;;;;;;5044134;28;20421;-65
2022/05/27 04:54:30;;;;;;;5.20;4.57;;;13.40;90.50;;;;;;5048932;28;20429;-66
2022/05/27 04:56:57;;;;;;;4.45;4.05;;;13.40;90.20;;;;;;5048704;28;20433;-67
2022/05/27 04:59:24;;;;;;;5.70;4.57;;;13.50;90.20;;;;;;5049228;28;20899;-67
2022/05/27 05:01:51;;;;;;;5.00;4.50;;;13.50;90.10;;;;;;5048279;28;20429;-66
2022/05/27 05:04:18;;;;;;;4.00;3.60;;;13.50;90.40;;;;;;5048702;28;20413;-65
2022/05/27 05:06:45;;;;;;;4.20;3.80;;;13.50;90.40;;;;;;5048803;28;20433;-64
2022/05/27 05:09:13;;;;;;;4.10;3.80;;;13.50;90.30;;;;;;5048746;28;20492;-63
2022/05/27 05:11:41;;;;;;;5.65;4.13;;;13.60;90.10;;;;;;5048811;28;20522;-66
2022/05/27 05:14:08;;;;;;;4.25;3.90;;;13.70;90.20;;;;;;5048609;28;20448;-67
2022/05/27 05:16:34;;;;;;;4.72;4.32;;;13.70;90.20;;;;;;5046970;28;20444;-67
2022/05/27 05:19:01;;;;;;;4.82;4.35;;;13.70;90.50;;;;;;5047246;28;20931;-68
2022/05/27 05:21:28;;;;;;;4.90;4.50;;;13.60;91.00;;;;;;5048435;28;20439;-67
2022/05/27 05:23:55;;;;;;;5.40;4.90;;;13.50;91.20;;;;;;5048764;28;20483;-67
2022/05/27 05:26:21;;;;;;;5.40;5.00;;;13.50;91.60;;;;;;5047727;28;20806;-68
2022/05/27 05:28:49;;;;;;;5.97;5.47;;;13.50;92.00;;;;;;5048419;28;20413;-68
2022/05/27 05:31:17;;;;;;;6.57;6.00;;;13.40;92.40;;;;;;5047708;28;20409;-68
2022/05/27 05:33:43;;;;;;;6.50;6.00;;;13.30;92.80;;;;;;5048163;28;20409;-69
2022/05/27 05:36:10;;;;;;;7.00;6.50;;;13.20;93.20;;;;;;5047973;28;20420;-70
2022/05/27 05:38:37;;;;;;;8.00;7.30;;;13.20;93.60;;;;;;5047519;28;20443;-69
2022/05/27 05:41:05;;;;;;;8.07;7.47;;;13.10;93.90;;;;;;5047493;28;20421;-69
2022/05/27 05:43:31;;;;;;;9.60;8.80;;;13.10;93.90;;;;;;5034668;28;20419;-69
2022/05/27 05:45:59;;;;;;;10.00;9.10;;;13.10;94.20;;;;;;5031112;28;20455;-71
2022/05/27 05:48:26;;;;;;;10.20;9.30;;;13.10;94.30;;;;;;5047429;28;20439;-68
2022/05/27 05:50:53;;;;;;;11.38;10.27;;;13.10;94.40;;;;;;5047861;28;20417;-68
2022/05/27 05:53:21;;;;;;;10.48;9.48;;;13.10;94.60;;;;;;5047972;28;20443;-68
2022/05/27 05:55:47;;;;;;;11.30;10.30;;;13.10;94.70;;;;;;5047713;28;20439;-69
2022/05/27 05:58:14;;;;;;;11.55;10.55;;;13.10;94.80;;;;;;5047538;28;20487;-69
2022/05/27 06:00:41;;;;;;;11.50;10.60;;;13.10;94.80;;;;;;5042518;28;21216;-69
2022/05/27 06:03:10;;;;;;;10.98;9.95;;;13.10;94.80;;;;;;5030114;28;20940;-69
2022/05/27 06:05:40;;;;;;;12.40;11.25;;;13.00;94.80;;;;;;5047750;28;20425;-67
2022/05/27 06:08:07;;;;;;;12.07;11.07;;;13.00;95.10;;;;;;5047460;28;20414;-68
2022/05/27 06:10:34;;;;;;;11.60;10.50;;;13.00;95.10;;;;;;5047879;28;20417;-70
2022/05/27 06:13:00;;;;;;;12.90;11.80;;;13.00;95.10;;;;;;5047654;28;20428;-68
2022/05/27 06:15:27;;;;;;;13.25;12.05;;;13.10;95.30;;;;;;5048021;28;20409;-69
2022/05/27 06:17:54;;;;;;;12.43;11.20;;;13.10;95.30;;;;;;5043667;28;20425;-70
2022/05/27 06:20:22;;;;;;;12.90;11.70;;;13.10;95.20;;;;;;5047504;28;20413;-68
2022/05/27 06:22:49;;;;;;;11.10;10.02;;;13.20;95.20;;;;;;5043806;28;20456;-67
2022/05/27 06:25:15;;;;;;;6.80;6.10;;;13.30;95.40;;;;;;5047534;28;20955;-68
2022/05/27 06:27:42;;;;;;;5.30;4.80;;;13.30;95.20;;;;;;5047404;28;20405;-67
2022/05/27 06:35:41;;;;;;;8.00;7.40;;;13.20;95.00;;;;;;5047367;28;20454;-67
2022/05/27 06:38:08;;;;;;;7.18;6.57;;;13.20;95.00;;;;;;5049956;28;21184;-69
2022/05/27 06:40:35;;;;;;;8.43;7.72;;;13.10;94.90;;;;;;5051255;28;20424;-69
2022/05/27 06:43:01;;;;;;;10.38;9.48;;;13.10;95.00;;;;;;5050474;28;20415;-68
2022/05/27 06:45:28;;;;;;;10.50;9.50;;;13.10;95.10;;;;;;5051329;28;20447;-67
2022/05/27 06:47:55;;;;;;;9.55;8.70;;;13.20;95.30;;;;;;5036423;28;20443;-67
2022/05/27 06:50:21;;;;;;;8.52;7.72;;;13.30;95.20;;;;;;5051564;28;20483;-69
2022/05/27 06:52:50;;;;;;;8.07;7.47;;;13.30;95.10;;;;;;5051260;28;20425;-68
2022/05/27 06:55:17;;;;;;;9.20;8.40;;;13.30;95.00;;;;;;5050986;28;21035;-69
2022/05/27 06:57:44;;;;;;;8.60;7.80;;;13.30;95.20;;;;;;5049445;28;20484;-68
2022/05/27 07:00:12;;;;;;;8.35;6.88;;;13.40;95.40;;;;;;5049885;28;20416;-69
2022/05/27 07:02:39;;;;;;;6.53;5.93;;;13.50;95.30;;;;;;5048279;28;20834;-69
2022/05/27 07:05:07;;;;;;;6.45;5.85;;;13.50;95.30;;;;;;5051955;28;20432;-69
2022/05/27 07:07:35;;;;;;;7.77;5.50;;;13.60;95.30;;;;;;5051391;28;20503;-69
2022/05/27 07:10:04;;;;;;;5.90;5.40;;;13.60;95.10;;;;;;5051599;28;20421;-68
2022/05/27 07:12:30;;;;;;;6.60;5.83;;;13.50;95.00;;;;;;5049503;28;20441;-69
2022/05/27 07:14:57;;;;;;;7.40;5.90;;;13.50;95.20;;;;;;5051126;28;20417;-70
2022/05/27 07:17:24;;;;;;;6.40;5.80;;;13.50;95.20;;;;;;5050809;28;20453;-68
2022/05/27 07:19:50;;;;;;;6.90;6.20;;;13.60;95.10;;;;;;5050990;28;20899;-69
2022/05/27 07:22:17;;;;;;;7.33;6.73;;;13.60;95.10;;;;;;5050977;28;20417;-68
2022/05/27 07:24:44;;;;;;;6.43;5.83;;;13.50;95.40;;;;;;5050641;28;20580;-69
2022/05/27 07:27:12;;;;;;;4.30;3.90;;;13.50;94.90;;;;;;5048934;28;20506;-68
2022/05/27 07:29:39;;;;;;;5.28;3.40;;;13.40;94.60;;;;;;5050338;28;20512;-69
2022/05/27 07:32:06;;;;;;;4.88;3.70;;;13.30;94.50;;;;;;5050619;28;20495;-69
2022/05/27 07:34:33;;;;;;;6.15;3.40;;;13.20;94.40;;;;;;5050308;28;20413;-68
2022/05/27 07:37:00;;;;;;;4.93;3.65;;;13.10;94.20;;;;;;5045123;28;20516;-68
2022/05/27 07:39:26;;;;;;;6.05;4.18;;;13.00;94.30;;;;;;5047854;28;20942;-68
2022/05/27 07:41:53;;;;;;;5.10;3.80;;;13.00;94.60;;;;;;5050167;28;20918;-69
2022/05/27 07:44:21;;;;;;;7.28;3.97;;;13.00;94.60;;;;;;5050144;28;20420;-69
2022/05/27 07:46:51;;;;;;;5.82;4.43;;;13.00;94.60;;;;;;5050288;28;20421;-68
2022/05/27 07:49:17;;;;;;;8.25;5.55;;;13.10;94.90;;;;;;5049465;28;20879;-68
2022/05/27 07:51:44;;;;;;;5.80;3.90;;;13.20;95.10;;;;;;5039399;28;20878;-68
2022/05/27 07:54:11;;;;;;;8.10;4.35;;;13.30;94.90;;;;;;5046070;28;20638;-67
2022/05/27 07:56:39;;;;;;;7.70;4.20;;;13.30;94.60;;;;;;5049708;28;20421;-68
2022/05/27 07:59:05;;;;;;;8.23;4.70;;;13.10;94.50;;;;;;5049837;28;20469;-70
2022/05/27 08:01:36;;;;;;;7.47;4.45;;;13.20;94.60;;;;;;5050187;28;20463;-68
2022/05/27 08:04:02;;;;;;;6.07;3.60;;;13.10;94.60;;;;;;5047048;28;20434;-69
2022/05/27 08:06:29;;;;;;;14.88;4.20;;;13.10;94.30;;;;;;5049567;28;20421;-68
2022/05/27 08:08:55;;;;;;;6.20;3.85;;;13.00;94.00;;;;;;5050062;28;20425;-68
2022/05/27 08:11:22;;;;;;;5.25;4.20;;;12.90;93.60;;;;;;5049590;28;20427;-68
2022/05/27 08:13:49;;;;;;;6.38;3.90;;;13.00;93.70;;;;;;5050208;28;20522;-68
2022/05/27 08:16:16;;;;;;;6.20;4.15;;;13.10;93.90;;;;;;5049342;28;20958;-68
2022/05/27 08:18:44;;;;;;;5.65;3.80;;;13.30;94.10;;;;;;5046084;28;20465;-68
2022/05/27 08:21:11;;;;;;;6.70;3.80;;;13.40;93.50;;;;;;5048119;28;20713;-69
2022/05/27 08:23:38;;;;;;;6.25;3.85;;;13.40;92.90;;;;;;5049712;28;20456;-69
2022/05/27 08:26:04;;;;;;;4.32;3.83;;;13.40;92.10;;;;;;5048094;28;20922;-69
2022/05/27 08:28:31;;;;;;;6.35;4.00;;;13.40;92.40;;;;;;5049282;28;20448;-69
2022/05/27 08:30:59;;;;;;;5.68;4.00;;;13.40;92.60;;;;;;5049243;28;20417;-69
2022/05/27 08:38:00;;;;;;;4.65;4.15;;;13.50;92.60;;;;;;5049048;28;20455;-68
2022/05/27 08:39:04;;;;;;;3.10;2.80;;;13.80;93.10;;;;;;5042348;28;20437;-69
2022/05/27 08:41:45;;;;;;;5.30;3.60;;;14.00;91.50;;;;;;5049219;28;20417;-69
2022/05/27 08:44:23;;;;;;;4.90;3.80;;;14.10;91.60;;;;;;5048378;28;20445;-68
2022/05/27 08:46:59;;;;;;;4.60;3.42;;;14.40;91.70;;;;;;5048756;28;20429;-69
2022/05/27 08:49:31;;;;;;;4.47;4.00;;;14.60;90.70;;;;;;5048144;28;20424;-68
2022/05/27 08:52:03;;;;;;;3.80;3.50;;;15.00;91.00;;;;;;5049086;28;20418;-69
2022/05/27 08:54:35;;;;;;;4.30;3.90;;;15.30;90.10;;;;;;5048948;28;20421;-69
2022/05/27 08:59:52;;;;;;;5.38;4.88;;;15.80;84.50;;;;;;5046938;28;20455;-70
2022/05/27 09:02:28;;;;;;;5.93;5.32;;;15.70;85.30;;;;;;5038771;28;20492;-69
2022/05/27 09:05:04;;;;;;;6.30;5.80;;;15.80;85.60;;;;;;5048711;28;20420;-68
2022/05/27 09:07:40;;;;;;;6.20;5.60;;;16.10;86.70;;;;;;5048168;28;20410;-68
2022/05/27 09:10:10;;;;;;;5.80;5.30;;;16.60;83.70;;;;;;5048376;28;20424;-69
2022/05/27 09:12:51;;;;;;;5.50;5.10;;;16.90;81.20;;;;;;5048611;28;20425;-69
2022/05/27 09:15:27;;;;;;;5.85;5.35;;;17.00;80.90;;;;;;5047747;28;20429;-68
2022/05/27 09:18:01;;;;;;;5.10;4.70;;;17.40;82.40;;;;;;5048603;28;20975;-68
2022/05/27 09:20:42;;;;;;;5.30;4.90;;;17.80;77.80;;;;;;5047959;28;20479;-68
2022/05/27 09:23:25;;;;;;;5.47;4.97;;;18.00;77.80;;;;;;5048008;28;20443;-69
2022/05/27 09:26:01;;;;;;;7.22;5.13;;;17.90;75.70;;;;;;5048066;28;21024;-69
2022/05/27 09:28:38;;;;;;;5.80;5.40;;;17.80;73.60;;;;;;5048091;28;20500;-69
2022/05/27 09:31:08;;;;;;;6.27;5.40;;;17.40;75.00;;;;;;5048352;28;20421;-69
2022/05/27 09:33:36;;;;;;;5.47;5.07;;;17.30;77.10;;;;;;5045139;28;20440;-69
2022/05/27 09:36:08;;;;;;;6.03;5.50;;;17.70;80.00;;;;;;5042168;28;20571;-69
2022/05/27 09:38:43;;;;;;;5.32;4.82;;;18.20;75.40;;;;;;5041726;28;20437;-68
2022/05/27 09:41:23;;;;;;;5.07;4.60;;;18.50;71.70;;;;;;5047860;28;20515;-69
2022/05/27 09:43:54;;;;;;;4.70;4.30;;;18.80;69.70;;;;;;5047845;28;20462;-68
2022/05/27 09:46:26;;;;;;;5.15;4.65;;;19.30;66.60;;;;;;5046148;28;20429;-68
2022/05/27 09:48:52;;;;;;;5.00;4.50;;;19.20;66.60;;;;;;5048008;28;20424;-68
2022/05/27 09:51:21;;;;;;;5.30;4.80;;;19.10;67.20;;;;;;5047954;28;20941;-69
2022/05/27 09:53:50;;;;;;;5.60;4.60;;;19.30;65.80;;;;;;5047508;28;20883;-69
2022/05/27 09:56:35;;;;;;;5.60;5.10;;;19.40;64.80;;;;;;5047673;28;20421;-68
2022/05/27 09:59:20;;;;;;;5.00;4.50;;;19.70;64.20;;;;;;5048399;28;20479;-69
2022/05/27 10:01:47;;;;;;;4.93;4.43;;;19.90;61.70;;;;;;5045346;28;20871;-69
2022/05/27 10:04:15;;;;;;;4.00;3.60;;;19.80;60.30;;;;;;5047161;28;20440;-69
2022/05/27 10:06:44;;;;;;;4.75;4.00;;;19.30;60.30;;;;;;5073081;23;20444;-69
2022/05/27 10:09:26;;;;;;;4.80;4.15;;;19.10;61.20;;;;;;5055066;28;20773;-69
2022/05/27 10:11:54;;;;;;;6.03;4.40;;;19.30;60.60;;;;;;5064497;28;20478;-69
2022/05/27 10:14:24;;;;;;;5.97;4.10;;;19.70;58.90;;;;;;5064138;28;20415;-69
2022/05/27 10:17:05;;;;;;;5.18;3.90;;;20.10;56.40;;;;;;5062751;28;20435;-69
2022/05/27 10:19:32;;;;;;;4.50;3.90;;;19.90;56.60;;;;;;5064363;28;20435;-69
2022/05/27 10:22:01;;;;;;;3.92;3.38;;;19.90;57.20;;;;;;5064196;28;20824;-69
2022/05/27 10:24:32;;;;;;;4.57;3.60;;;19.90;58.80;;;;;;5064432;28;20411;-69
2022/05/27 10:27:06;;;;;;;5.18;3.90;;;20.20;55.70;;;;;;5063907;28;20775;-69
2022/05/27 10:29:35;;;;;;;5.18;3.50;;;20.30;53.70;;;;;;5064572;28;20437;-69
2022/05/27 10:32:02;;;;;;;4.40;3.47;;;20.20;55.70;;;;;;5062839;28;20493;-69
2022/05/27 10:34:41;;;;;;;4.50;3.50;;;20.50;54.60;;;;;;5064150;28;20419;-69
2022/05/27 10:37:17;;;;;;;3.90;3.50;;;20.70;54.60;;;;;;5060289;28;20427;-69
2022/05/27 10:40:01;;;;;;;5.13;3.35;;;20.40;52.60;;;;;;5059601;28;20429;-69
2022/05/27 10:42:37;;;;;;;5.43;3.50;;;20.60;51.70;;;;;;5060688;28;20534;-69
2022/05/27 10:45:16;;;;;;;4.10;3.40;;;20.30;52.50;;;;;;5055297;28;20435;-69
2022/05/27 10:48:19;;;;;;;4.35;3.95;;;20.30;54.50;;;;;;5066428;28;20769;-68
2022/05/27 10:50:53;;;;;;;7.07;3.13;;;20.40;52.30;;;;;;5063133;28;20465;-69
2022/05/27 10:53:49;;;;;;;3.03;2.70;;;20.50;53.50;;;;;;5071194;28;20510;-69
2022/05/27 10:56:31;;;;;;;9.15;3.35;;;20.80;49.30;;;;;;5083746;28;20414;-68
2022/05/27 11:02:10;;;;;;;3.63;2.88;;;20.60;50.10;;;;;;5061614;28;20412;-68
2022/05/27 11:05:09;;;;;;;3.90;2.65;;;20.90;50.00;;;;;;5073370;28;20443;-69
2022/05/27 11:07:44;;;;;;;3.75;2.80;;;21.00;46.30;;;;;;5063409;28;20889;-68
2022/05/27 11:10:38;;;;;;;3.25;2.70;;;20.80;48.20;;;;;;5073356;28;20414;-68
2022/05/27 11:16:15;;;;;;;3.25;2.28;;;20.60;49.70;;;;;;5077890;28;20429;-68
2022/05/27 11:18:57;;;;;;;3.83;2.20;;;21.10;49.40;;;;;;5068282;28;20477;-69
2022/05/27 11:21:36;;;;;;;2.50;1.85;;;21.70;45.70;;;;;;5071493;28;20574;-68
2022/05/27 11:24:32;;;;;;;3.15;2.20;;;21.90;43.00;;;;;;5086562;28;20914;-68
2022/05/27 11:27:11;;;;;;;2.00;1.70;;;21.90;42.80;;;;;;5061311;28;20446;-68
2022/05/27 11:30:01;;;;;;;2.38;1.80;;;22.00;42.50;;;;;;5066894;28;20419;-68
2022/05/27 11:32:59;;;;;;;2.92;1.90;;;21.90;41.50;;;;;;5082841;28;20438;-68
2022/05/27 11:35:37;;;;;;;3.47;2.20;;;22.00;43.20;;;;;;5073676;28;20508;-66
2022/05/27 11:38:24;;;;;;;2.90;2.20;;;22.20;46.30;;;;;;5086818;28;20410;-66
2022/05/27 11:41:00;;;;;;;4.20;2.45;;;22.50;44.90;;;;;;5071829;28;20431;-66
2022/05/27 11:43:46;;;;;;;3.10;1.88;;;22.80;43.80;;;;;;5076110;28;20438;-67
2022/05/27 11:46:44;;;;;;;6.80;2.30;;;22.90;45.20;;;;;;5060551;28;20435;-67
2022/05/27 11:49:40;;;;;;;3.08;2.10;;;22.90;45.60;;;;;;5066532;28;20457;-67
2022/05/27 11:52:17;;;;;;;3.97;2.00;;;23.00;45.70;;;;;;5076614;28;20410;-66
2022/05/27 11:55:01;;;;;;;3.95;2.00;;;23.10;45.40;;;;;;5079277;28;20430;-69
2022/05/27 11:57:41;;;;;;;3.95;2.78;;;22.90;44.10;;;;;;5066118;28;20789;-68
2022/05/27 12:00:12;;;;;;;4.35;3.10;;;22.20;44.70;;;;;;5084391;28;20463;-68
2022/05/27 12:02:50;;;;;;;6.10;3.65;;;21.50;47.20;;;;;;5069188;28;20414;-66
2022/05/27 12:05:20;;;;;;;5.60;3.40;;;21.00;48.80;;;;;;5070248;28;20435;-66
2022/05/27 12:07:51;;;;;;;4.15;3.17;;;20.80;50.00;;;;;;5070929;28;20508;-66
2022/05/27 12:10:24;;;;;;;5.00;3.10;;;21.00;50.40;;;;;;5086924;28;20406;-67
2022/05/27 12:12:56;;;;;;;5.50;2.42;;;21.70;48.20;;;;;;5086934;28;20406;-67
2022/05/27 12:15:25;;;;;;;3.90;2.80;;;22.30;46.50;;;;;;5078305;28;20874;-69
2022/05/27 12:17:55;;;;;;;5.65;2.33;;;22.70;42.10;;;;;;5065659;28;20416;-68
2022/05/27 12:20:24;;;;;;;3.40;2.20;;;22.70;43.00;;;;;;5067960;28;20438;-68
2022/05/27 12:22:53;;;;;;;4.70;2.67;;;22.90;43.60;;;;;;5086552;28;20419;-67
2022/05/27 12:25:23;;;;;;;5.40;2.60;;;23.10;44.60;;;;;;5086637;28;20433;-68
2022/05/27 12:27:52;;;;;;;4.70;2.60;;;23.10;44.20;;;;;;5066827;28;20565;-67
2022/05/27 12:30:31;;;;;;;5.97;2.85;;;22.90;44.10;;;;;;5064269;28;20407;-66
2022/05/27 12:33:00;;;;;;;4.50;2.67;;;22.40;45.20;;;;;;5062231;28;20488;-67
2022/05/27 12:35:44;;;;;;;3.20;2.40;;;22.50;44.30;;;;;;5071251;28;20479;-68
2022/05/27 12:38:15;;;;;;;4.63;2.33;;;22.50;43.80;;;;;;5085475;28;20487;-68
2022/05/27 12:40:46;;;;;;;5.60;2.50;;;22.80;41.70;;;;;;5085849;28;20516;-68
2022/05/27 12:43:24;;;;;;;4.65;2.25;;;22.80;40.20;;;;;;5067389;28;20565;-68
2022/05/27 12:45:53;;;;;;;4.35;2.00;;;22.00;41.70;;;;;;5073093;28;20530;-68
2022/05/27 12:48:32;;;;;;;4.00;2.70;;;21.90;42.40;;;;;;5075726;28;20464;-68
2022/05/27 12:51:02;;;;;;;4.22;2.20;;;22.30;40.70;;;;;;5086247;28;20414;-68
2022/05/27 12:53:48;;;;;;;4.03;1.70;;;22.40;40.30;;;;;;5077639;28;20434;-68
2022/05/27 13:02:52;;;;;;;2.97;1.80;;;22.80;37.50;;;;;;5060877;28;20474;-68
2022/05/27 13:05:22;;;;;;;4.68;2.28;;;22.90;38.80;;;;;;5085013;28;20410;-68
2022/05/27 13:08:12;;;;;;;4.88;2.40;;;23.20;36.40;;;;;;5084729;28;20410;-68
2022/05/27 13:10:50;;;;;;;4.70;2.50;;;22.80;36.40;;;;;;5077920;28;20525;-68
2022/05/27 13:13:29;;;;;;;4.10;2.13;;;23.10;39.10;;;;;;5065647;28;20430;-68
2022/05/27 13:16:25;;;;;;;4.30;2.35;;;23.50;37.00;;;;;;5075428;28;20422;-68
2022/05/27 13:18:59;;;;;;;4.25;2.03;;;23.40;35.40;;;;;;5079337;28;20791;-69
2022/05/27 13:21:40;;;;;;;3.05;1.60;;;23.60;35.90;;;;;;5082740;28;20786;-70
2022/05/27 13:24:26;;;;;;;3.72;2.08;;;23.80;35.20;;;;;;5077503;28;20406;-68
2022/05/27 13:26:59;;;;;;;3.83;1.80;;;23.40;32.50;;;;;;5068055;28;20790;-68
2022/05/27 13:29:31;;;;;;;6.03;2.00;;;22.80;34.00;;;;;;5066703;28;20419;-68
2022/05/27 13:32:03;;;;;;;3.33;1.80;;;22.70;34.70;;;;;;5084677;28;20500;-68
2022/05/27 13:34:40;;;;;;;5.10;2.20;;;22.60;35.40;;;;;;5074746;28;20415;-68